createdAt,value
2023-04-10T00:00:23.829Z,101158.50
2023-04-10T00:02:50.661Z,101170.69
2023-04-10T00:05:17.765Z,101169.84
2023-04-10T00:07:44.361Z,101167.34
2023-04-10T00:10:11.124Z,101178.59
2023-04-10T00:12:38.030Z,101164.78
2023-04-10T00:15:05.082Z,101175.09
2023-04-10T00:17:31.765Z,101178.63
2023-04-10T00:19:59.480Z,101182.06
2023-04-10T00:22:26.654Z,101166.56
2023-04-10T00:24:53.509Z,101179.56
2023-04-10T00:27:20.234Z,101170.03
2023-04-10T00:29:46.966Z,101196.91
2023-04-10T00:32:13.930Z,101204.78
2023-04-10T00:34:40.768Z,101196.94
2023-04-10T00:37:07.522Z,101196.97
2023-04-10T00:39:34.344Z,101204.75
2023-04-10T00:42:02.427Z,101198.75
2023-04-10T00:44:29.142Z,101213.50
2023-04-10T00:46:56.089Z,101189.28
2023-04-10T00:49:22.948Z,101209.22
2023-04-10T00:51:49.795Z,101221.41
2023-04-10T00:54:16.907Z,101214.47
2023-04-10T00:56:44.139Z,101206.69
2023-04-10T00:59:10.934Z,101198.88
2023-04-10T01:01:37.634Z,101217.13
2023-04-10T01:04:04.561Z,101212.69
2023-04-10T01:06:42.514Z,101204.97
2023-04-10T01:09:27.475Z,101239.66
2023-04-10T01:11:56.728Z,101232.72
2023-04-10T01:14:52.136Z,101238.00
2023-04-10T01:17:24.160Z,101231.13
2023-04-10T01:20:16.928Z,101241.50
2023-04-10T01:23:05.158Z,101247.59
2023-04-10T01:25:43.608Z,101251.94
2023-04-10T01:28:19.372Z,101260.69
2023-04-10T01:30:54.100Z,101248.56
2023-04-10T01:33:21.942Z,101260.72
2023-04-10T01:35:53.832Z,101258.97
2023-04-10T01:38:21.861Z,101261.59
2023-04-10T01:40:51.606Z,101266.84
2023-04-10T01:43:19.854Z,101272.94
2023-04-10T01:45:48.680Z,101283.44
2023-04-10T01:48:17.821Z,101282.63
2023-04-10T01:50:46.187Z,101300.88
2023-04-10T01:53:13.268Z,101307.03
2023-04-10T01:55:41.193Z,101321.81
2023-04-10T01:58:08.130Z,101329.69
2023-04-10T02:00:41.923Z,101333.22
2023-04-10T02:03:09.572Z,101349.75
2023-04-10T02:05:44.637Z,101370.69
2023-04-10T02:08:41.559Z,101392.44
2023-04-10T02:11:32.562Z,101413.34
2023-04-10T02:14:02.301Z,101440.38
2023-04-10T02:16:29.765Z,101436.97
2023-04-10T02:18:57.156Z,101450.88
2023-04-10T02:21:23.866Z,101476.13
2023-04-10T02:23:50.515Z,101460.56
2023-04-10T02:26:17.145Z,101490.16
2023-04-10T02:28:43.759Z,101524.09
2023-04-10T02:31:10.450Z,101532.81
2023-04-10T02:33:37.321Z,101550.28
2023-04-10T02:36:04.234Z,101577.25
2023-04-10T02:38:31.068Z,101583.41
2023-04-10T02:40:57.715Z,101598.22
2023-04-10T02:43:24.327Z,101594.84
2023-04-10T02:45:51.416Z,101640.03
2023-04-10T02:48:18.127Z,101664.50
2023-04-10T02:50:46.802Z,101681.97
2023-04-10T02:53:17.077Z,101717.66
2023-04-10T02:55:43.710Z,101740.38
2023-04-10T02:58:10.401Z,101791.72
2023-04-10T03:00:37.463Z,101882.38
2023-04-10T03:03:04.355Z,101912.03
2023-04-10T03:05:31.204Z,101961.69
2023-04-10T03:07:57.878Z,102006.13
2023-04-10T03:10:24.728Z,102017.47
2023-04-10T03:12:51.438Z,102040.13
2023-04-10T03:15:18.397Z,102078.47
2023-04-10T03:17:45.103Z,102102.88
2023-04-10T03:20:12.214Z,102114.22
2023-04-10T03:22:39.802Z,102127.31
2023-04-10T03:25:06.942Z,102114.22
2023-04-10T03:27:35.121Z,102129.91
2023-04-10T03:30:02.902Z,102131.66
2023-04-10T03:32:31.331Z,102125.56
2023-04-10T03:34:59.087Z,102122.94
2023-04-10T03:37:27.723Z,102121.19
2023-04-10T03:39:54.572Z,102089.78
2023-04-10T03:42:21.217Z,102094.19
2023-04-10T03:44:47.897Z,102074.97
2023-04-10T03:47:14.598Z,102063.69
2023-04-10T03:49:41.223Z,102036.63
2023-04-10T03:52:07.821Z,102013.09
2023-04-10T03:54:34.425Z,101982.56
2023-04-10T03:57:01.743Z,101934.66
2023-04-10T03:59:37.771Z,101932.03
2023-04-10T04:02:07.093Z,101917.22
2023-04-10T04:04:34.030Z,101905.88
2023-04-10T04:07:00.738Z,101890.19
2023-04-10T04:09:27.445Z,101854.47
2023-04-10T04:11:54.099Z,101873.59
2023-04-10T04:14:21.330Z,101853.59
2023-04-10T04:16:48.251Z,101844.00
2023-04-10T04:19:14.914Z,101831.84
2023-04-10T04:21:41.650Z,101831.84
2023-04-10T04:24:08.276Z,101812.69
2023-04-10T04:26:34.929Z,101803.97
2023-04-10T04:29:01.657Z,101826.59
2023-04-10T04:31:32.599Z,101819.63
2023-04-10T04:34:00.340Z,101825.69
2023-04-10T04:36:27.861Z,101822.25
2023-04-10T04:38:55.127Z,101807.41
2023-04-10T04:41:22.209Z,101803.06
2023-04-10T04:43:49.578Z,101795.25
2023-04-10T04:46:16.314Z,101776.09
2023-04-10T04:48:43.122Z,101773.41
2023-04-10T04:51:09.721Z,101748.19
2023-04-10T04:53:37.027Z,101729.03
2023-04-10T04:56:03.971Z,101729.88
2023-04-10T04:58:30.584Z,101717.66
2023-04-10T05:00:57.248Z,101708.97
2023-04-10T05:03:24.112Z,101696.75
2023-04-10T05:05:50.988Z,101693.25
2023-04-10T05:08:17.619Z,101665.38
2023-04-10T05:10:44.187Z,101661.78
2023-04-10T05:13:11.028Z,101653.06
2023-04-10T05:15:37.861Z,101630.34
2023-04-10T05:18:04.757Z,101605.94
2023-04-10T05:20:31.560Z,101585.03
2023-04-10T05:22:58.363Z,101557.09
2023-04-10T05:25:25.060Z,101531.78
2023-04-10T05:27:51.730Z,101514.31
2023-04-10T05:30:18.422Z,101476.75
2023-04-10T05:32:46.267Z,101442.72
2023-04-10T05:35:13.050Z,101419.13
2023-04-10T05:37:39.753Z,101379.91
2023-04-10T05:40:07.594Z,101361.59
2023-04-10T05:42:34.285Z,101332.84
2023-04-10T05:45:00.869Z,101319.78
2023-04-10T05:47:27.559Z,101305.88
2023-04-10T05:49:54.262Z,101299.81
2023-04-10T05:52:20.913Z,101287.56
2023-04-10T05:54:47.589Z,101277.16
2023-04-10T05:57:14.194Z,101278.91
2023-04-10T05:59:41.184Z,101263.22
2023-04-10T06:02:07.916Z,101261.44
2023-04-10T06:04:34.746Z,101239.66
2023-04-10T06:07:01.780Z,101230.13
2023-04-10T06:09:28.429Z,101216.06
2023-04-10T06:11:55.191Z,101203.91
2023-04-10T06:14:21.892Z,101209.06
2023-04-10T06:16:48.689Z,101205.50
2023-04-10T06:19:15.294Z,101193.44
2023-04-10T06:21:41.982Z,101191.63
2023-04-10T06:24:09.637Z,101157.03
2023-04-10T06:26:37.601Z,101168.25
2023-04-10T06:29:04.283Z,101173.41
2023-04-10T06:31:34.129Z,101157.78
2023-04-10T06:34:01.133Z,101143.06
2023-04-10T06:36:27.853Z,101133.53
2023-04-10T06:38:54.717Z,101123.13
2023-04-10T06:41:21.620Z,101137.78
2023-04-10T06:43:48.328Z,101161.94
2023-04-10T06:46:16.366Z,101162.69
2023-04-10T06:48:43.153Z,101140.09
2023-04-10T06:51:09.922Z,101143.59
2023-04-10T06:53:36.609Z,101140.94
2023-04-10T06:56:03.773Z,101135.72
2023-04-10T06:58:31.314Z,101137.47
2023-04-10T07:00:59.006Z,101133.28
2023-04-10T07:03:25.754Z,101146.41
2023-04-10T07:05:52.484Z,101146.47
2023-04-10T07:08:19.384Z,101161.41
2023-04-10T07:10:46.467Z,101151.16
2023-04-10T07:13:13.190Z,101188.69
2023-04-10T07:15:39.826Z,101217.38
2023-04-10T07:18:06.607Z,101256.56
2023-04-10T07:20:33.388Z,101283.53
2023-04-10T07:22:59.986Z,101319.97
2023-04-10T07:25:26.657Z,101326.22
2023-04-10T07:27:53.431Z,101354.13
2023-04-10T07:30:20.557Z,101363.78
2023-04-10T07:32:47.483Z,101383.03
2023-04-10T07:35:14.201Z,101418.72
2023-04-10T07:37:41.306Z,101445.75
2023-04-10T07:40:08.835Z,101448.41
2023-04-10T07:42:35.748Z,101480.66
2023-04-10T07:45:02.494Z,101497.22
2023-04-10T07:47:29.261Z,101489.50
2023-04-10T07:49:56.668Z,101522.53
2023-04-10T07:52:23.319Z,101556.47
2023-04-10T07:54:50.051Z,101555.72
2023-04-10T07:57:16.963Z,101590.50
2023-04-10T07:59:43.552Z,101613.13
2023-04-10T08:02:10.562Z,101643.63
2023-04-10T08:04:37.389Z,101643.66
2023-04-10T08:07:04.107Z,101682.81
2023-04-10T08:09:30.836Z,101683.72
2023-04-10T08:11:58.151Z,101717.69
2023-04-10T08:14:24.832Z,101754.22
2023-04-10T08:16:51.479Z,101785.59
2023-04-10T08:19:18.110Z,101791.72
2023-04-10T08:21:44.812Z,101820.44
2023-04-10T08:24:11.468Z,101827.41
2023-04-10T08:26:38.246Z,101835.28
2023-04-10T08:29:05.064Z,101825.69
2023-04-10T08:31:31.691Z,101850.06
2023-04-10T08:33:59.151Z,101846.56
2023-04-10T08:36:27.350Z,101836.97
2023-04-10T08:38:54.159Z,101858.75
2023-04-10T08:41:21.049Z,101850.03
2023-04-10T08:43:47.848Z,101832.56
2023-04-10T08:46:15.121Z,101837.75
2023-04-10T08:48:48.919Z,101825.50
2023-04-10T08:51:20.711Z,101823.72
2023-04-10T08:53:55.868Z,101805.41
2023-04-10T08:56:23.311Z,101803.59
2023-04-10T08:58:51.949Z,101794.03
2023-04-10T09:01:20.516Z,101778.34
2023-04-10T09:03:48.349Z,101755.72
2023-04-10T09:06:15.046Z,101722.66
2023-04-10T09:08:41.668Z,101705.22
2023-04-10T09:11:08.447Z,101711.25
2023-04-10T09:13:39.971Z,101699.03
2023-04-10T09:16:07.376Z,101679.81
2023-04-10T09:18:51.514Z,101666.66
2023-04-10T09:21:22.121Z,101671.81
2023-04-10T09:23:49.590Z,101655.16
2023-04-10T09:26:29.141Z,101646.31
2023-04-10T09:29:06.599Z,101638.97
2023-04-10T09:31:37.895Z,101614.13
2023-04-10T09:34:15.396Z,101572.09
2023-04-10T09:36:44.336Z,101538.28
2023-04-10T09:39:12.311Z,101491.72
2023-04-10T09:41:48.189Z,101414.75
2023-04-10T09:44:17.622Z,101390.31
2023-04-10T09:46:44.225Z,101315.91
2023-04-10T09:49:11.050Z,101245.75
2023-04-10T09:51:39.330Z,101188.59
2023-04-10T09:54:06.910Z,101161.84
2023-04-10T09:56:37.145Z,101130.72
2023-04-10T09:59:04.919Z,101124.59
2023-04-10T10:01:35.154Z,101111.69
2023-04-10T10:04:05.252Z,101108.34
2023-04-10T10:06:33.031Z,101102.94
2023-04-10T10:09:04.334Z,101105.13
2023-04-10T10:11:35.431Z,101104.69
2023-04-10T10:14:09.693Z,101070.78
2023-04-10T10:16:52.929Z,101090.22
2023-04-10T10:19:33.970Z,101044.34
2023-04-10T10:22:01.784Z,101011.94
2023-04-10T10:24:30.164Z,100998.06
2023-04-10T10:26:57.445Z,100925.06
2023-04-10T10:29:24.571Z,100918.13
2023-04-10T10:31:52.421Z,100909.16
2023-04-10T10:34:19.160Z,100883.16
2023-04-10T10:36:45.853Z,100868.28
2023-04-10T10:39:23.219Z,100863.78
2023-04-10T10:41:57.812Z,100827.19
2023-04-10T10:44:33.314Z,100812.38
2023-04-10T10:47:23.420Z,100812.28
2023-04-10T10:49:57.744Z,100819.66
2023-04-10T10:52:42.073Z,100811.84
2023-04-10T10:55:24.746Z,100817.78
2023-04-10T10:57:55.989Z,100783.84
2023-04-10T11:00:28.093Z,100767.94
2023-04-10T11:03:13.367Z,100767.38
2023-04-10T11:06:17.448Z,100726.94
2023-04-10T11:08:48.109Z,100730.66
2023-04-10T11:11:18.199Z,100698.53
2023-04-10T11:13:56.340Z,100696.72
2023-04-10T11:16:23.906Z,100686.41
2023-04-10T11:18:59.244Z,100680.09
2023-04-10T11:21:33.104Z,100670.66
2023-04-10T11:24:00.791Z,100678.84
2023-04-10T11:26:36.254Z,100678.31
2023-04-10T11:29:06.878Z,100669.53
2023-04-10T11:31:34.113Z,100635.47
2023-04-10T11:34:02.006Z,100626.41
2023-04-10T11:36:29.078Z,100646.13
2023-04-10T11:38:57.910Z,100634.63
2023-04-10T11:41:32.052Z,100642.94
2023-04-10T11:44:00.325Z,100638.97
2023-04-10T11:46:28.015Z,100624.59
2023-04-10T11:49:00.106Z,100619.00
2023-04-10T11:51:30.084Z,100622.59
2023-04-10T11:54:13.560Z,100619.38
2023-04-10T11:56:45.036Z,100618.25
2023-04-10T11:59:13.656Z,100601.06
2023-04-10T12:01:42.791Z,100604.16
2023-04-10T12:04:21.134Z,100607.75
2023-04-10T12:06:49.460Z,100605.75
2023-04-10T12:09:17.650Z,100626.97
2023-04-10T12:11:56.934Z,100649.59
2023-04-10T12:14:24.246Z,100674.16
2023-04-10T12:16:51.706Z,100699.75
2023-04-10T12:19:18.837Z,100734.41
2023-04-10T12:21:46.333Z,100776.00
2023-04-10T12:24:13.268Z,100759.78
2023-04-10T12:26:48.157Z,100775.84
2023-04-10T12:29:14.815Z,100792.94
2023-04-10T12:31:41.602Z,100834.00
2023-04-10T12:34:11.270Z,100838.63
2023-04-10T12:36:38.264Z,100819.59
2023-04-10T12:39:06.253Z,100765.00
2023-04-10T12:41:34.180Z,100729.03
2023-04-10T12:44:11.873Z,100716.72
2023-04-10T12:46:39.735Z,100699.75
2023-04-10T12:49:13.742Z,100627.94
2023-04-10T12:51:48.792Z,100659.34
2023-04-10T12:54:35.510Z,100633.44
2023-04-10T12:57:04.012Z,100635.44
2023-04-10T12:59:31.396Z,100630.31
2023-04-10T13:01:58.214Z,100649.56
2023-04-10T13:04:25.356Z,100673.97
2023-04-10T13:06:54.874Z,100696.88
2023-04-10T13:09:22.474Z,100721.09
2023-04-10T13:11:51.126Z,100735.59
2023-04-10T13:14:18.560Z,100811.88
2023-04-10T13:16:45.452Z,100888.28
2023-04-10T13:19:15.359Z,100925.81
2023-04-10T13:21:41.952Z,100967.06
2023-04-10T13:24:08.643Z,100973.78
2023-04-10T13:26:35.314Z,100985.00
2023-04-10T13:29:01.890Z,100977.47
2023-04-10T13:31:28.571Z,100946.09
2023-04-10T13:33:55.345Z,100880.94
2023-04-10T13:36:22.042Z,100842.13
2023-04-10T13:38:48.729Z,100847.53
2023-04-10T13:41:15.553Z,100840.22
2023-04-10T13:43:42.197Z,100798.50
2023-04-10T13:46:08.942Z,100778.25
2023-04-10T13:48:41.187Z,100742.53
2023-04-10T13:51:08.483Z,100726.81
2023-04-10T13:53:35.488Z,100708.50
2023-04-10T13:56:02.431Z,100680.94
2023-04-10T13:58:32.022Z,100675.06
2023-04-10T14:00:59.208Z,100644.53
2023-04-10T14:03:26.034Z,100631.19
2023-04-10T14:05:52.967Z,100618.09
2023-04-10T14:08:20.151Z,100591.53
2023-04-10T14:10:50.878Z,100569.06
2023-04-10T14:13:18.374Z,100551.84
2023-04-10T14:15:45.222Z,100527.03
2023-04-10T14:18:12.066Z,100504.22
2023-04-10T14:20:39.203Z,100478.94
2023-04-10T14:23:05.952Z,100481.78
2023-04-10T14:25:32.658Z,100494.81
2023-04-10T14:27:59.890Z,100490.22
2023-04-10T14:30:31.067Z,100475.69
2023-04-10T14:32:58.023Z,100477.53
2023-04-10T14:35:24.918Z,100474.28
2023-04-10T14:37:51.641Z,100471.25
2023-04-10T14:40:18.339Z,100470.75
2023-04-10T14:42:46.069Z,100468.84
2023-04-10T14:45:12.793Z,100450.81
2023-04-10T14:47:39.599Z,100441.47
2023-04-10T14:50:08.222Z,100466.22
2023-04-10T14:52:34.920Z,100453.47
2023-04-10T14:55:01.560Z,100443.56
2023-04-10T14:57:29.754Z,100436.03
2023-04-10T14:59:56.469Z,100436.25
2023-04-10T15:02:23.443Z,100442.22
2023-04-10T15:04:50.734Z,100443.06
2023-04-10T15:07:17.319Z,100437.81
2023-04-10T15:09:44.637Z,100409.09
2023-04-10T15:12:11.471Z,100430.53
2023-04-10T15:14:38.129Z,100420.06
2023-04-10T15:17:05.000Z,100421.50
2023-04-10T15:19:31.745Z,100416.59
2023-04-10T15:21:58.473Z,100419.59
2023-04-10T15:24:25.258Z,100402.34
2023-04-10T15:26:53.566Z,100406.50
2023-04-10T15:29:20.316Z,100407.28
2023-04-10T15:31:47.061Z,100409.78
2023-04-10T15:34:13.852Z,100415.78
2023-04-10T15:36:40.559Z,100390.66
2023-04-10T15:39:07.215Z,100398.94
2023-04-10T15:41:34.083Z,100390.53
2023-04-10T15:44:00.836Z,100402.94
2023-04-10T15:46:27.700Z,100422.19
2023-04-10T15:48:54.388Z,100416.69
2023-04-10T15:51:21.481Z,100383.81
2023-04-10T15:53:48.078Z,100398.28
2023-04-10T15:56:16.213Z,100420.00
2023-04-10T15:58:42.887Z,100411.28
2023-04-10T16:01:09.575Z,100402.53
2023-04-10T16:03:36.306Z,100413.69
2023-04-10T16:06:03.333Z,100409.56
2023-04-10T16:08:30.065Z,100387.69
2023-04-10T16:10:56.904Z,100394.22
2023-04-10T16:13:23.501Z,100377.72
2023-04-10T16:15:50.604Z,100380.88
2023-04-10T16:18:17.389Z,100362.84
2023-04-10T16:20:44.063Z,100368.75
2023-04-10T16:23:10.690Z,100345.28
2023-04-10T16:25:37.275Z,100358.94
2023-04-10T16:28:06.561Z,100364.03
2023-04-10T16:30:35.105Z,100384.88
2023-04-10T16:33:02.446Z,100374.72
2023-04-10T16:35:29.106Z,100376.25
2023-04-10T16:37:55.720Z,100374.22
2023-04-10T16:40:22.385Z,100366.00
2023-04-10T16:42:48.972Z,100374.28
2023-04-10T16:45:15.798Z,100378.53
2023-04-10T16:47:44.677Z,100383.72
2023-04-10T16:50:11.628Z,100377.28
2023-04-10T16:52:38.353Z,100376.03
2023-04-10T16:55:05.505Z,100374.44
2023-04-10T16:57:33.030Z,100363.75
2023-04-10T16:59:59.738Z,100371.44
2023-04-10T17:02:27.123Z,100384.75
2023-04-10T17:04:57.147Z,100373.38
2023-04-10T17:07:24.106Z,100355.50
2023-04-10T17:09:51.022Z,100388.75
2023-04-10T17:12:17.742Z,100389.59
2023-04-10T17:14:44.668Z,100382.25
2023-04-10T17:17:11.443Z,100395.22
2023-04-10T17:19:38.689Z,100392.09
2023-04-10T17:22:06.994Z,100365.50
2023-04-10T17:24:33.669Z,100398.31
2023-04-10T17:27:02.239Z,100395.84
2023-04-10T17:29:28.913Z,100398.06
2023-04-10T17:31:55.739Z,100383.94
2023-04-10T17:34:22.519Z,100393.84
2023-04-10T17:36:49.772Z,100402.50
2023-04-10T17:39:16.723Z,100400.47
2023-04-10T17:41:48.988Z,100402.84
2023-04-10T17:44:16.194Z,100401.06
2023-04-10T17:46:42.849Z,100376.47
2023-04-10T17:49:09.555Z,100404.06
2023-04-10T17:51:36.340Z,100400.84
2023-04-10T17:54:03.211Z,100371.44
2023-04-10T17:56:29.820Z,100406.66
2023-04-10T17:58:56.741Z,100385.81
2023-04-10T18:01:29.878Z,100399.81
2023-04-10T18:04:00.496Z,100393.16
2023-04-10T18:06:27.732Z,100399.66
2023-04-10T18:08:58.442Z,100405.75
2023-04-10T18:11:25.475Z,100413.31
2023-04-10T18:13:52.191Z,100408.13
2023-04-10T18:16:34.588Z,100411.59
2023-04-10T18:19:01.298Z,100374.16
2023-04-10T18:21:28.202Z,100411.34
2023-04-10T18:23:55.006Z,100421.22
2023-04-10T18:26:21.778Z,100416.72
2023-04-10T18:28:51.877Z,100417.41
2023-04-10T18:31:19.179Z,100404.78
2023-04-10T18:33:56.240Z,100427.16
2023-04-10T18:36:31.556Z,100408.06
2023-04-10T18:38:58.295Z,100413.75
2023-04-10T18:41:24.927Z,100413.72
2023-04-10T18:44:01.817Z,100403.69
2023-04-10T18:46:32.507Z,100393.41
2023-04-10T18:49:01.095Z,100403.88
2023-04-10T18:51:28.265Z,100411.50
2023-04-10T18:53:55.890Z,100381.47
2023-04-10T18:56:22.792Z,100393.59
2023-04-10T18:58:50.306Z,100407.47
2023-04-10T19:01:20.805Z,100403.03
2023-04-10T19:03:50.755Z,100410.59
2023-04-10T19:06:23.899Z,100405.19
2023-04-10T19:08:51.102Z,100404.97
2023-04-10T19:11:18.763Z,100396.50
2023-04-10T19:13:45.638Z,100399.38
2023-04-10T19:16:19.212Z,100384.69
2023-04-10T19:18:53.006Z,100365.47
2023-04-10T19:21:19.823Z,100404.28
2023-04-10T19:23:46.547Z,100395.63
2023-04-10T19:26:13.288Z,100396.31
2023-04-10T19:28:39.922Z,100385.13
2023-04-10T19:31:06.998Z,100388.41
2023-04-10T19:33:33.748Z,100384.97
2023-04-10T19:36:00.461Z,100361.94
2023-04-10T19:38:29.217Z,100387.16
2023-04-10T19:40:56.064Z,100388.13
2023-04-10T19:43:22.843Z,100352.97
2023-04-10T19:45:49.539Z,100381.00
2023-04-10T19:48:19.829Z,100370.94
2023-04-10T19:50:46.523Z,100371.91
2023-04-10T19:53:15.723Z,100377.06
2023-04-10T19:55:44.570Z,100382.16
2023-04-10T19:58:24.977Z,100375.19
2023-04-10T20:01:05.047Z,100380.31
2023-04-10T20:03:32.925Z,100373.47
2023-04-10T20:06:00.812Z,100396.66
2023-04-10T20:08:27.561Z,100378.53
2023-04-10T20:10:55.610Z,100378.59
2023-04-10T20:13:23.860Z,100387.09
2023-04-10T20:15:50.734Z,100384.53
2023-04-10T20:18:17.488Z,100386.41
2023-04-10T20:20:44.818Z,100372.66
2023-04-10T20:23:12.470Z,100332.69
2023-04-10T20:25:39.381Z,100373.63
2023-04-10T20:28:06.416Z,100370.34
2023-04-10T20:30:33.151Z,100372.81
2023-04-10T20:32:59.894Z,100359.19
2023-04-10T20:35:27.003Z,100372.13
2023-04-10T20:37:53.647Z,100373.06
2023-04-10T20:40:20.334Z,100366.03
2023-04-10T20:42:46.949Z,100368.59
2023-04-10T20:45:13.683Z,100369.56
2023-04-10T20:47:40.468Z,100367.19
2023-04-10T20:50:07.907Z,100373.13
2023-04-10T20:52:34.610Z,100350.06
2023-04-10T20:55:01.290Z,100351.31
2023-04-10T20:57:27.964Z,100373.03
2023-04-10T20:59:54.585Z,100364.63
2023-04-10T21:02:21.391Z,100372.63
2023-04-10T21:04:55.283Z,100367.34
2023-04-10T21:07:21.942Z,100345.88
2023-04-10T21:09:48.604Z,100352.53
2023-04-10T21:12:15.252Z,100361.34
2023-04-10T21:14:41.923Z,100343.38
2023-04-10T21:17:08.585Z,100357.94
2023-04-10T21:19:35.279Z,100343.38
2023-04-10T21:22:02.009Z,100352.31
2023-04-10T21:24:28.939Z,100338.66
2023-04-10T21:26:55.647Z,100344.00
2023-04-10T21:29:22.347Z,100343.84
2023-04-10T21:31:50.544Z,100343.94
2023-04-10T21:34:17.484Z,100335.19
2023-04-10T21:36:44.152Z,100325.75
2023-04-10T21:39:10.959Z,100315.53
2023-04-10T21:41:38.469Z,100335.94
2023-04-10T21:44:08.827Z,100335.00
2023-04-10T21:46:35.585Z,100320.16
2023-04-10T21:49:03.144Z,100306.78
2023-04-10T21:51:29.990Z,100328.38
2023-04-10T21:53:56.808Z,100331.03
2023-04-10T21:56:23.404Z,100333.75
2023-04-10T21:58:50.046Z,100301.13
2023-04-10T22:01:16.708Z,100286.75
2023-04-10T22:03:43.443Z,100316.78
2023-04-10T22:06:10.668Z,100307.31
2023-04-10T22:08:38.496Z,100316.69
2023-04-10T22:11:06.075Z,100302.13
2023-04-10T22:13:32.892Z,100304.78
2023-04-10T22:16:02.110Z,100305.69
2023-04-10T22:18:29.238Z,100308.38
2023-04-10T22:20:55.904Z,100270.53
2023-04-10T22:23:22.726Z,100299.63
2023-04-10T22:25:49.471Z,100296.13
2023-04-10T22:28:16.153Z,100296.22
2023-04-10T22:30:42.971Z,100292.72
2023-04-10T22:33:10.357Z,100291.09
2023-04-10T22:35:37.369Z,100290.44
2023-04-10T22:38:04.111Z,100288.50
2023-04-10T22:40:31.337Z,100278.88
2023-04-10T22:42:58.116Z,100274.78
2023-04-10T22:45:24.810Z,100265.56
2023-04-10T22:47:51.546Z,100284.53
2023-04-10T22:50:18.442Z,100286.03
2023-04-10T22:52:45.132Z,100273.34
2023-04-10T22:55:11.976Z,100267.34
2023-04-10T22:57:38.677Z,100251.88
2023-04-10T23:00:06.134Z,100270.94
2023-04-10T23:02:32.997Z,100274.34
2023-04-10T23:04:59.735Z,100273.59
2023-04-10T23:07:27.948Z,100271.06
2023-04-10T23:09:54.774Z,100266.53
2023-04-10T23:12:21.547Z,100262.28
2023-04-10T23:14:48.239Z,100245.94
2023-04-10T23:17:16.224Z,100246.88
2023-04-10T23:19:42.893Z,100244.38
2023-04-10T23:22:09.599Z,100252.09
2023-04-10T23:24:36.274Z,100249.44
2023-04-10T23:27:07.069Z,100235.03
2023-04-10T23:29:34.732Z,100243.50
2023-04-10T23:32:01.393Z,100236.78
2023-04-10T23:34:27.981Z,100211.91
2023-04-10T23:36:54.786Z,100225.66
2023-04-10T23:39:22.003Z,100229.72
2023-04-10T23:41:48.655Z,100234.16
2023-04-10T23:44:15.380Z,100226.97
2023-04-10T23:46:42.084Z,100216.03
2023-04-10T23:49:08.806Z,100186.97
2023-04-10T23:51:35.413Z,100206.81
2023-04-10T23:54:02.064Z,100213.56
2023-04-10T23:56:29.462Z,100206.78
2023-04-10T23:58:56.653Z,100221.34
